sensor_id;sensor_type;location;lat;lon;timestamp;P1;durP1;ratioP1;P2;durP2;ratioP2
20104;SDS011;10212;42.714;23.310;2023-02-28T00:04:26;75.25;;;38.85;;
20104;SDS011;10212;42.714;23.310;2023-02-28T00:14:26;44.95;;;23.08;;
20104;SDS011;10212;42.714;23.310;2023-02-28T00:24:26;42.05;;;22.67;;
20104;SDS011;10212;42.714;23.310;2023-02-28T00:34:27;45.25;;;23.10;;
20104;SDS011;10212;42.714;23.310;2023-02-28T00:44:28;43.17;;;22.53;;
20104;SDS011;10212;42.714;23.310;2023-02-28T00:54:28;41.83;;;22.77;;
20104;SDS011;10212;42.714;23.310;2023-02-28T01:04:29;41.45;;;21.90;;
20104;SDS011;10212;42.714;23.310;2023-02-28T01:14:30;41.88;;;20.52;;
20104;SDS011;10212;42.714;23.310;2023-02-28T01:24:30;44.75;;;22.17;;
20104;SDS011;10212;42.714;23.310;2023-02-28T01:34:31;45.38;;;21.08;;
20104;SDS011;10212;42.714;23.310;2023-02-28T01:54:55;41.88;;;19.20;;
20104;SDS011;10212;42.714;23.310;2023-02-28T02:05:05;44.15;;;20.13;;
20104;SDS011;10212;42.714;23.310;2023-02-28T02:15:20;45.00;;;19.85;;
20104;SDS011;10212;42.714;23.310;2023-02-28T02:25:42;53.67;;;21.80;;
20104;SDS011;10212;42.714;23.310;2023-02-28T02:46:41;58.33;;;24.60;;
20104;SDS011;10212;42.714;23.310;2023-02-28T02:56:44;60.08;;;23.95;;
20104;SDS011;10212;42.714;23.310;2023-02-28T03:06:48;41.38;;;19.40;;
20104;SDS011;10212;42.714;23.310;2023-02-28T03:27:21;34.65;;;17.63;;
20104;SDS011;10212;42.714;23.310;2023-02-28T03:37:26;33.75;;;17.48;;
20104;SDS011;10212;42.714;23.310;2023-02-28T03:47:33;31.38;;;15.35;;
20104;SDS011;10212;42.714;23.310;2023-02-28T03:58:26;28.17;;;15.15;;
20104;SDS011;10212;42.714;23.310;2023-02-28T04:08:20;29.70;;;15.52;;
20104;SDS011;10212;42.714;23.310;2023-02-28T04:18:22;30.70;;;15.30;;
20104;SDS011;10212;42.714;23.310;2023-02-28T04:28:22;30.90;;;15.90;;
20104;SDS011;10212;42.714;23.310;2023-02-28T04:38:23;39.67;;;20.88;;
20104;SDS011;10212;42.714;23.310;2023-02-28T04:48:23;41.25;;;19.85;;
20104;SDS011;10212;42.714;23.310;2023-02-28T04:58:25;49.20;;;21.55;;
20104;SDS011;10212;42.714;23.310;2023-02-28T05:08:25;71.68;;;29.10;;
20104;SDS011;10212;42.714;23.310;2023-02-28T05:18:26;98.30;;;31.45;;
20104;SDS011;10212;42.714;23.310;2023-02-28T05:28:26;91.53;;;32.30;;
20104;SDS011;10212;42.714;23.310;2023-02-28T05:38:27;108.53;;;37.55;;
20104;SDS011;10212;42.714;23.310;2023-02-28T05:48:27;129.75;;;44.67;;
20104;SDS011;10212;42.714;23.310;2023-02-28T05:58:28;98.50;;;37.88;;
20104;SDS011;10212;42.714;23.310;2023-02-28T06:08:30;96.57;;;33.80;;
20104;SDS011;10212;42.714;23.310;2023-02-28T06:18:31;89.32;;;33.22;;
20104;SDS011;10212;42.714;23.310;2023-02-28T06:28:31;88.57;;;37.60;;
20104;SDS011;10212;42.714;23.310;2023-02-28T06:38:32;113.50;;;43.83;;
20104;SDS011;10212;42.714;23.310;2023-02-28T06:48:33;86.18;;;36.50;;
20104;SDS011;10212;42.714;23.310;2023-02-28T06:58:34;73.68;;;32.28;;
20104;SDS011;10212;42.714;23.310;2023-02-28T07:08:35;71.63;;;32.67;;
20104;SDS011;10212;42.714;23.310;2023-02-28T07:18:36;62.38;;;28.00;;
20104;SDS011;10212;42.714;23.310;2023-02-28T07:28:37;60.05;;;27.95;;
20104;SDS011;10212;42.714;23.310;2023-02-28T07:38:38;48.17;;;25.27;;
20104;SDS011;10212;42.714;23.310;2023-02-28T07:48:38;50.00;;;24.75;;
20104;SDS011;10212;42.714;23.310;2023-02-28T07:58:39;43.45;;;24.35;;
20104;SDS011;10212;42.714;23.310;2023-02-28T08:08:39;48.95;;;25.42;;
20104;SDS011;10212;42.714;23.310;2023-02-28T08:18:40;50.70;;;26.83;;
20104;SDS011;10212;42.714;23.310;2023-02-28T08:28:40;47.90;;;26.52;;
20104;SDS011;10212;42.714;23.310;2023-02-28T08:38:40;47.25;;;26.15;;
20104;SDS011;10212;42.714;23.310;2023-02-28T08:48:41;58.42;;;30.13;;
20104;SDS011;10212;42.714;23.310;2023-02-28T08:58:42;61.33;;;32.45;;
20104;SDS011;10212;42.714;23.310;2023-02-28T09:08:44;59.88;;;32.88;;
20104;SDS011;10212;42.714;23.310;2023-02-28T09:18:44;62.33;;;32.60;;
20104;SDS011;10212;42.714;23.310;2023-02-28T09:28:45;58.30;;;31.77;;
20104;SDS011;10212;42.714;23.310;2023-02-28T09:38:46;65.53;;;34.33;;
20104;SDS011;10212;42.714;23.310;2023-02-28T09:48:47;63.25;;;32.70;;
20104;SDS011;10212;42.714;23.310;2023-02-28T09:58:49;50.58;;;24.45;;
20104;SDS011;10212;42.714;23.310;2023-02-28T10:19:40;36.75;;;14.52;;
20104;SDS011;10212;42.714;23.310;2023-02-28T10:29:43;31.30;;;13.30;;
20104;SDS011;10212;42.714;23.310;2023-02-28T10:39:45;29.42;;;13.95;;
20104;SDS011;10212;42.714;23.310;2023-02-28T10:49:47;30.77;;;12.98;;
20104;SDS011;10212;42.714;23.310;2023-02-28T10:59:52;36.20;;;13.32;;
20104;SDS011;10212;42.714;23.310;2023-02-28T11:10:17;31.27;;;15.55;;
20104;SDS011;10212;42.714;23.310;2023-02-28T11:20:21;39.15;;;15.55;;
20104;SDS011;10212;42.714;23.310;2023-02-28T11:30:40;35.20;;;13.88;;
20104;SDS011;10212;42.714;23.310;2023-02-28T12:01:23;31.30;;;13.20;;
20104;SDS011;10212;42.714;23.310;2023-02-28T12:32:17;25.17;;;11.40;;
20104;SDS011;10212;42.714;23.310;2023-02-28T12:42:27;25.60;;;12.10;;
20104;SDS011;10212;42.714;23.310;2023-02-28T13:22:48;30.15;;;11.95;;
20104;SDS011;10212;42.714;23.310;2023-02-28T13:33:17;28.92;;;11.15;;
20104;SDS011;10212;42.714;23.310;2023-02-28T13:43:19;26.10;;;12.37;;
20104;SDS011;10212;42.714;23.310;2023-02-28T13:53:32;26.38;;;11.38;;
20104;SDS011;10212;42.714;23.310;2023-02-28T14:13:59;36.08;;;12.40;;
20104;SDS011;10212;42.714;23.310;2023-02-28T14:34:53;29.08;;;11.55;;
20104;SDS011;10212;42.714;23.310;2023-02-28T14:45:02;29.95;;;12.60;;
20104;SDS011;10212;42.714;23.310;2023-02-28T14:55:10;25.98;;;11.63;;
20104;SDS011;10212;42.714;23.310;2023-02-28T15:15:16;23.20;;;11.20;;
20104;SDS011;10212;42.714;23.310;2023-02-28T15:25:19;25.02;;;11.57;;
20104;SDS011;10212;42.714;23.310;2023-02-28T15:45:28;24.80;;;12.40;;
20104;SDS011;10212;42.714;23.310;2023-02-28T15:55:37;22.50;;;11.85;;
20104;SDS011;10212;42.714;23.310;2023-02-28T16:05:38;18.27;;;10.40;;
20104;SDS011;10212;42.714;23.310;2023-02-28T16:15:39;20.98;;;10.98;;
20104;SDS011;10212;42.714;23.310;2023-02-28T16:25:43;19.15;;;9.32;;
20104;SDS011;10212;42.714;23.310;2023-02-28T16:35:46;19.15;;;9.18;;
20104;SDS011;10212;42.714;23.310;2023-02-28T16:45:46;20.58;;;9.48;;
20104;SDS011;10212;42.714;23.310;2023-02-28T16:55:47;19.47;;;9.40;;
20104;SDS011;10212;42.714;23.310;2023-02-28T17:05:47;20.73;;;11.32;;
20104;SDS011;10212;42.714;23.310;2023-02-28T17:15:48;18.02;;;7.40;;
20104;SDS011;10212;42.714;23.310;2023-02-28T17:25:48;12.75;;;7.43;;
20104;SDS011;10212;42.714;23.310;2023-02-28T17:35:55;14.02;;;6.88;;
20104;SDS011;10212;42.714;23.310;2023-02-28T17:45:55;8.83;;;5.80;;
20104;SDS011;10212;42.714;23.310;2023-02-28T17:55:56;9.75;;;5.30;;
20104;SDS011;10212;42.714;23.310;2023-02-28T18:05:57;5.80;;;4.05;;
20104;SDS011;10212;42.714;23.310;2023-02-28T18:15:58;6.93;;;3.88;;
20104;SDS011;10212;42.714;23.310;2023-02-28T18:25:58;6.20;;;3.63;;
20104;SDS011;10212;42.714;23.310;2023-02-28T18:35:59;5.00;;;3.53;;
20104;SDS011;10212;42.714;23.310;2023-02-28T18:46:03;6.65;;;3.97;;
20104;SDS011;10212;42.714;23.310;2023-02-28T18:56:05;9.48;;;5.72;;
20104;SDS011;10212;42.714;23.310;2023-02-28T19:06:07;9.98;;;5.00;;
20104;SDS011;10212;42.714;23.310;2023-02-28T19:16:09;7.30;;;4.50;;
20104;SDS011;10212;42.714;23.310;2023-02-28T19:26:11;8.93;;;5.93;;
20104;SDS011;10212;42.714;23.310;2023-02-28T19:36:14;8.98;;;5.38;;
20104;SDS011;10212;42.714;23.310;2023-02-28T19:46:15;7.22;;;4.40;;
20104;SDS011;10212;42.714;23.310;2023-02-28T19:56:17;5.97;;;4.35;;
20104;SDS011;10212;42.714;23.310;2023-02-28T20:06:18;7.60;;;4.72;;
20104;SDS011;10212;42.714;23.310;2023-02-28T20:16:19;8.55;;;5.50;;
20104;SDS011;10212;42.714;23.310;2023-02-28T20:26:19;7.43;;;5.18;;
20104;SDS011;10212;42.714;23.310;2023-02-28T20:36:20;13.57;;;7.05;;
20104;SDS011;10212;42.714;23.310;2023-02-28T20:46:25;14.35;;;8.43;;
20104;SDS011;10212;42.714;23.310;2023-02-28T20:56:26;17.92;;;10.65;;
20104;SDS011;10212;42.714;23.310;2023-02-28T21:06:28;17.00;;;10.55;;
20104;SDS011;10212;42.714;23.310;2023-02-28T21:16:31;16.77;;;10.20;;
20104;SDS011;10212;42.714;23.310;2023-02-28T21:26:32;14.27;;;8.63;;
20104;SDS011;10212;42.714;23.310;2023-02-28T21:36:38;14.05;;;8.70;;
20104;SDS011;10212;42.714;23.310;2023-02-28T21:46:39;11.40;;;7.80;;
20104;SDS011;10212;42.714;23.310;2023-02-28T21:56:40;13.52;;;7.97;;
20104;SDS011;10212;42.714;23.310;2023-02-28T22:06:41;11.77;;;7.35;;
20104;SDS011;10212;42.714;23.310;2023-02-28T22:16:44;10.80;;;6.78;;
20104;SDS011;10212;42.714;23.310;2023-02-28T22:26:44;10.35;;;6.53;;
20104;SDS011;10212;42.714;23.310;2023-02-28T22:36:45;12.70;;;7.45;;
20104;SDS011;10212;42.714;23.310;2023-02-28T22:46:45;8.27;;;5.60;;
20104;SDS011;10212;42.714;23.310;2023-02-28T22:56:50;8.73;;;5.60;;
20104;SDS011;10212;42.714;23.310;2023-02-28T23:06:51;8.05;;;4.78;;
20104;SDS011;10212;42.714;23.310;2023-02-28T23:16:52;6.53;;;4.80;;
20104;SDS011;10212;42.714;23.310;2023-02-28T23:26:54;7.80;;;4.65;;
20104;SDS011;10212;42.714;23.310;2023-02-28T23:36:57;5.85;;;4.13;;
20104;SDS011;10212;42.714;23.310;2023-02-28T23:46:59;4.85;;;3.45;;
20104;SDS011;10212;42.714;23.310;2023-02-28T23:57:00;5.40;;;3.78;;
